Time;durP1;ratioP1;P1;durP2;ratioP2;P2;SDS_P1;SDS_P2;PMS_P1;PMS_P2;Temp;Humidity;BMP_temperature;BMP_pressure;BME280_temperature;BME280_humidity;BME280_pressure;Samples;Min_cycle;Max_cycle;Signal;HPM_P1;HPM_P2
2023/01/28 00:01:07;;;;;;;13.73;12.13;;;19.70;65.40;;;;;;5035856;28;20689;-82
2023/01/28 00:03:34;;;;;;;13.85;11.95;;;19.70;65.40;;;;;;5038222;28;20205;-81
2023/01/28 00:06:07;;;;;;;15.05;13.13;;;19.60;65.40;;;;;;5036416;28;20199;-81
2023/01/28 00:08:34;;;;;;;12.60;11.25;;;19.60;65.40;;;;;;5037257;28;20286;-81
2023/01/28 00:11:02;;;;;;;14.85;12.43;;;19.60;65.40;;;;;;5035527;28;20237;-82
2023/01/28 00:13:29;;;;;;;16.33;12.73;;;19.60;65.40;;;;;;5035397;28;20208;-81
2023/01/28 00:15:57;;;;;;;15.27;12.38;;;19.60;65.40;;;;;;5032574;28;20201;-79
2023/01/28 00:18:25;;;;;;;12.40;11.13;;;19.50;65.40;;;;;;5034608;28;20200;-80
2023/01/28 00:20:58;;;;;;;15.02;11.43;;;19.50;65.60;;;;;;5038936;28;20231;-81
2023/01/28 00:23:27;;;;;;;16.63;11.85;;;19.60;65.90;;;;;;5034393;28;20208;-82
2023/01/28 00:25:54;;;;;;;17.55;11.75;;;19.60;67.00;;;;;;5033796;28;20276;-83
2023/01/28 00:28:23;;;;;;;15.57;11.38;;;19.60;66.20;;;;;;5036338;28;20207;-84
2023/01/28 00:30:50;;;;;;;39.95;10.77;;;19.60;66.30;;;;;;5039309;28;20269;-82
2023/01/28 00:33:17;;;;;;;17.27;11.75;;;19.50;66.20;;;;;;5036169;28;20659;-84
2023/01/28 00:35:44;;;;;;;17.05;11.13;;;19.50;66.20;;;;;;5037031;28;20218;-84
2023/01/28 00:38:11;;;;;;;15.25;10.98;;;19.50;66.20;;;;;;5038269;28;20294;-84
2023/01/28 00:40:39;;;;;;;15.25;10.85;;;19.50;66.10;;;;;;5038053;28;20204;-83
2023/01/28 00:43:06;;;;;;;13.40;10.20;;;19.40;65.90;;;;;;5036201;28;20207;-83
2023/01/28 00:45:33;;;;;;;13.40;9.75;;;19.40;65.90;;;;;;5035581;28;20271;-84
2023/01/28 00:47:59;;;;;;;20.95;10.80;;;19.40;66.30;;;;;;5034204;28;20226;-82
2023/01/28 00:50:26;;;;;;;16.25;10.40;;;19.40;66.20;;;;;;5033742;28;20204;-81
2023/01/28 00:52:53;;;;;;;10.65;8.73;;;19.40;66.20;;;;;;5034342;28;20224;-81
2023/01/28 00:55:20;;;;;;;14.25;9.80;;;19.40;66.20;;;;;;5036234;28;20195;-80
2023/01/28 00:57:49;;;;;;;12.10;10.63;;;19.40;66.20;;;;;;5035815;28;20678;-80
2023/01/28 01:00:19;;;;;;;12.60;9.23;;;19.30;66.10;;;;;;5034958;28;20658;-80
2023/01/28 01:02:45;;;;;;;13.05;8.10;;;19.30;66.10;;;;;;5035892;28;20198;-80
2023/01/28 01:05:12;;;;;;;11.82;10.20;;;19.30;66.10;;;;;;5032869;28;20203;-79
2023/01/28 01:07:41;;;;;;;15.20;9.00;;;19.30;66.20;;;;;;5035824;28;20202;-79
2023/01/28 01:10:09;;;;;;;14.77;8.52;;;19.20;66.00;;;;;;5034784;28;20203;-80
2023/01/28 01:12:36;;;;;;;9.73;8.73;;;19.20;66.00;;;;;;5036323;28;20222;-80
2023/01/28 01:15:09;;;;;;;10.60;9.52;;;19.30;66.10;;;;;;5036456;28;20207;-80
2023/01/28 01:17:36;;;;;;;9.65;8.65;;;19.20;66.00;;;;;;5036779;28;21925;-80
2023/01/28 01:20:03;;;;;;;13.98;9.35;;;19.20;65.90;;;;;;5035661;28;20768;-80
2023/01/28 01:22:33;;;;;;;10.23;8.68;;;19.20;66.00;;;;;;5033379;28;20191;-80
2023/01/28 01:24:59;;;;;;;16.50;9.70;;;19.20;66.00;;;;;;5035346;28;20199;-80
2023/01/28 01:27:26;;;;;;;10.63;8.63;;;19.20;66.00;;;;;;5036483;28;20710;-79
2023/01/28 01:29:53;;;;;;;9.95;8.75;;;19.20;66.00;;;;;;5037230;28;20207;-77
2023/01/28 01:32:21;;;;;;;10.10;8.73;;;19.10;65.90;;;;;;5033066;28;20215;-79
2023/01/28 01:34:48;;;;;;;11.45;8.73;;;19.10;65.90;;;;;;5034312;28;20209;-79
2023/01/28 01:37:15;;;;;;;9.95;8.85;;;19.10;65.90;;;;;;5033749;28;20290;-78
2023/01/28 01:39:42;;;;;;;11.18;8.55;;;19.10;65.90;;;;;;5035335;28;20207;-79
2023/01/28 01:42:11;;;;;;;11.05;9.57;;;19.10;65.90;;;;;;5035743;28;20203;-78
2023/01/28 01:44:59;;;;;;;9.45;8.00;;;19.00;66.60;;;;;;5035551;28;20222;-79
2023/01/28 01:47:35;;;;;;;9.85;8.13;;;19.00;65.80;;;;;;5035254;28;20204;-79
2023/01/28 01:50:07;;;;;;;9.93;8.93;;;19.00;65.80;;;;;;5032341;28;20195;-79
2023/01/28 01:52:36;;;;;;;9.63;8.35;;;19.00;65.80;;;;;;5034098;28;20258;-79
2023/01/28 01:55:07;;;;;;;9.68;8.65;;;19.00;65.90;;;;;;5033291;28;20705;-79
2023/01/28 01:57:36;;;;;;;9.77;8.25;;;19.00;65.90;;;;;;5035180;28;20423;-78
2023/01/28 02:00:05;;;;;;;11.05;8.57;;;18.90;65.80;;;;;;5032629;28;20211;-79
2023/01/28 02:02:38;;;;;;;8.68;7.60;;;18.90;65.90;;;;;;5035271;28;20210;-78
2023/01/28 02:05:05;;;;;;;10.15;8.30;;;18.90;65.80;;;;;;5037089;28;20226;-79
2023/01/28 02:07:33;;;;;;;10.05;8.10;;;18.90;65.80;;;;;;5037332;28;20286;-79
2023/01/28 02:09:59;;;;;;;9.95;8.50;;;18.90;65.80;;;;;;5034893;28;20195;-79
2023/01/28 02:12:31;;;;;;;8.88;7.78;;;18.90;65.90;;;;;;5034503;28;20217;-78
2023/01/28 02:15:01;;;;;;;10.32;8.35;;;18.90;65.80;;;;;;5033279;28;20558;-79
2023/01/28 02:17:28;;;;;;;9.48;8.20;;;18.90;65.90;;;;;;5034614;28;20196;-79
2023/01/28 02:19:59;;;;;;;10.27;9.20;;;18.80;65.70;;;;;;5035616;28;20213;-78
2023/01/28 02:23:03;;;;;;;9.85;8.27;;;18.80;65.70;;;;;;5037655;28;20203;-77
2023/01/28 02:26:10;;;;;;;9.60;7.82;;;18.80;65.70;;;;;;5035384;28;20219;-78
2023/01/28 02:28:46;;;;;;;10.38;8.40;;;18.80;65.80;;;;;;5034025;28;20257;-77
2023/01/28 02:31:18;;;;;;;8.02;7.10;;;18.80;65.80;;;;;;5037849;28;20699;-79
2023/01/28 02:33:55;;;;;;;9.10;7.32;;;18.80;65.80;;;;;;5038601;28;20227;-79
2023/01/28 02:36:30;;;;;;;8.10;7.30;;;18.80;65.80;;;;;;5038653;28;20576;-79
2023/01/28 02:39:01;;;;;;;9.57;7.57;;;18.80;65.80;;;;;;5036047;28;20204;-78
2023/01/28 02:41:33;;;;;;;9.27;7.75;;;18.70;65.80;;;;;;5039081;28;20195;-78
2023/01/28 02:44:02;;;;;;;9.95;7.43;;;18.70;65.80;;;;;;5037379;28;20203;-79
2023/01/28 02:49:26;;;;;;;9.43;7.95;;;18.70;65.80;;;;;;5037760;28;20197;-80
2023/01/28 02:52:08;;;;;;;8.07;7.28;;;18.70;65.80;;;;;;5038796;28;20234;-80
2023/01/28 02:54:41;;;;;;;8.02;7.20;;;18.70;65.80;;;;;;5040495;28;20646;-80
2023/01/28 02:57:24;;;;;;;8.90;6.50;;;18.70;65.90;;;;;;5039494;28;20206;-80
2023/01/28 03:00:02;;;;;;;8.43;7.63;;;18.60;65.80;;;;;;5040589;28;20211;-80
2023/01/28 03:02:35;;;;;;;10.63;8.00;;;18.60;65.80;;;;;;5038903;28;20286;-80
2023/01/28 03:05:07;;;;;;;11.57;8.05;;;18.60;65.80;;;;;;5039105;28;20197;-79
2023/01/28 03:07:36;;;;;;;8.50;7.60;;;18.60;65.80;;;;;;5040377;28;20191;-78
2023/01/28 03:10:06;;;;;;;8.27;6.95;;;18.60;65.80;;;;;;5038334;28;20207;-79
2023/01/28 03:37:49;;;;;;;8.20;7.40;;;18.40;65.70;;;;;;5039504;28;20201;-79
2023/01/28 03:40:17;;;;;;;9.20;7.38;;;18.40;65.70;;;;;;5040064;28;20204;-79
2023/01/28 03:42:44;;;;;;;8.85;7.35;;;18.40;65.70;;;;;;5036644;28;20199;-79
2023/01/28 03:45:13;;;;;;;7.85;7.05;;;18.40;65.80;;;;;;5036945;28;20213;-79
2023/01/28 03:47:42;;;;;;;9.60;8.45;;;18.40;65.80;;;;;;5037299;28;20218;-79
2023/01/28 03:50:10;;;;;;;7.95;6.53;;;18.40;65.80;;;;;;5038273;28;20211;-78
2023/01/28 03:52:37;;;;;;;8.07;7.20;;;18.40;65.70;;;;;;5037347;28;20223;-78
2023/01/28 03:55:12;;;;;;;8.18;7.15;;;18.40;65.70;;;;;;5038982;28;20211;-79
2023/01/28 03:57:39;;;;;;;6.78;6.15;;;18.40;65.80;;;;;;5037871;28;20731;-77
2023/01/28 04:00:09;;;;;;;7.95;6.97;;;18.40;65.70;;;;;;5038534;28;20688;-78
2023/01/28 04:02:38;;;;;;;9.38;6.97;;;18.40;65.70;;;;;;5035082;28;20557;-77
2023/01/28 04:05:11;;;;;;;8.73;7.65;;;18.30;65.60;;;;;;5038674;28;20251;-77
2023/01/28 04:07:38;;;;;;;7.85;7.10;;;18.30;65.70;;;;;;5037054;28;20210;-78
2023/01/28 04:10:07;;;;;;;7.35;6.57;;;18.30;66.50;;;;;;5038142;28;20202;-78
2023/01/28 04:12:36;;;;;;;8.75;6.40;;;18.30;65.70;;;;;;5036663;28;20237;-78
2023/01/28 04:15:14;;;;;;;8.23;7.43;;;18.30;65.70;;;;;;5038203;28;20240;-78
2023/01/28 04:17:41;;;;;;;8.40;5.82;;;18.30;65.70;;;;;;5036920;28;20210;-78
2023/01/28 04:20:11;;;;;;;8.50;6.70;;;18.30;65.70;;;;;;5038353;28;20201;-77
2023/01/28 04:22:37;;;;;;;8.75;6.20;;;18.30;65.70;;;;;;5036074;28;20202;-78
2023/01/28 04:25:05;;;;;;;9.18;6.57;;;18.20;65.60;;;;;;5036291;28;20199;-78
2023/01/28 04:27:32;;;;;;;7.25;6.10;;;18.20;65.60;;;;;;5038578;28;20200;-77
2023/01/28 04:29:58;;;;;;;7.85;7.15;;;18.20;65.60;;;;;;5036160;28;20198;-78
2023/01/28 04:32:25;;;;;;;6.93;6.28;;;18.20;65.60;;;;;;5036757;28;20229;-77
2023/01/28 04:34:52;;;;;;;8.93;7.22;;;18.20;65.60;;;;;;5035517;28;20234;-77
2023/01/28 04:37:20;;;;;;;8.20;6.55;;;18.20;65.60;;;;;;5038546;28;20199;-76
2023/01/28 04:39:47;;;;;;;8.10;6.30;;;18.20;65.60;;;;;;5035773;28;20207;-78
2023/01/28 04:42:13;;;;;;;6.55;5.95;;;18.20;66.50;;;;;;5037531;28;21950;-77
2023/01/28 04:44:40;;;;;;;7.30;6.60;;;18.10;65.60;;;;;;5037052;28;20572;-77
2023/01/28 04:47:07;;;;;;;7.18;6.47;;;18.10;65.60;;;;;;5034925;28;20205;-77
2023/01/28 04:49:34;;;;;;;6.72;6.20;;;18.10;65.60;;;;;;5034562;28;20206;-77
2023/01/28 04:52:00;;;;;;;8.73;7.93;;;18.10;65.60;;;;;;5035391;28;20405;-77
2023/01/28 04:54:29;;;;;;;7.40;6.00;;;18.10;65.60;;;;;;5036226;28;20577;-78
2023/01/28 04:56:56;;;;;;;8.52;6.30;;;18.10;65.60;;;;;;5037256;28;20199;-78
2023/01/28 04:59:23;;;;;;;7.57;6.72;;;18.10;65.60;;;;;;5037388;28;20250;-78
2023/01/28 05:01:50;;;;;;;6.88;6.28;;;18.10;65.60;;;;;;5035189;28;20210;-78
2023/01/28 05:04:17;;;;;;;8.07;7.28;;;18.10;65.60;;;;;;5037764;28;20648;-78
2023/01/28 05:06:44;;;;;;;7.10;6.40;;;18.10;65.60;;;;;;5036478;28;20198;-77
2023/01/28 05:09:10;;;;;;;7.32;6.10;;;18.00;65.50;;;;;;5038025;28;20202;-78
2023/01/28 05:11:38;;;;;;;7.85;6.30;;;18.00;65.50;;;;;;5034878;28;20221;-78
2023/01/28 05:14:05;;;;;;;7.65;6.78;;;18.00;65.50;;;;;;5035553;28;20221;-78
2023/01/28 05:16:33;;;;;;;8.55;6.40;;;18.00;65.60;;;;;;5035937;28;20573;-79
2023/01/28 05:19:00;;;;;;;6.25;5.72;;;18.00;65.50;;;;;;5034467;28;20210;-77
2023/01/28 05:21:27;;;;;;;7.03;5.82;;;18.00;65.60;;;;;;5037096;28;20981;-77
2023/01/28 05:23:54;;;;;;;6.60;6.00;;;18.00;65.60;;;;;;5036998;28;20213;-77
2023/01/28 05:26:21;;;;;;;5.78;5.28;;;17.90;65.40;;;;;;5036720;28;20206;-78
2023/01/28 05:28:50;;;;;;;7.53;5.95;;;18.00;65.60;;;;;;5035728;28;20205;-79
2023/01/28 05:31:17;;;;;;;10.55;6.88;;;18.00;65.60;;;;;;5033853;28;20202;-78
2023/01/28 05:33:44;;;;;;;5.82;5.30;;;17.90;65.40;;;;;;5034415;28;20233;-78
2023/01/28 05:36:11;;;;;;;6.45;5.85;;;17.90;65.40;;;;;;5034493;28;20203;-79
2023/01/28 05:38:38;;;;;;;7.72;6.78;;;17.90;65.40;;;;;;5036450;28;20654;-78
2023/01/28 05:41:04;;;;;;;5.57;5.05;;;17.90;65.40;;;;;;5035878;28;20209;-78
2023/01/28 05:43:31;;;;;;;7.50;6.70;;;17.90;65.40;;;;;;5034799;28;20194;-78
2023/01/28 05:45:59;;;;;;;6.40;5.80;;;17.90;65.40;;;;;;5036686;28;20202;-78
2023/01/28 05:48:26;;;;;;;7.32;5.82;;;17.80;65.40;;;;;;5035655;28;20211;-78
2023/01/28 05:50:53;;;;;;;6.30;5.50;;;17.90;65.40;;;;;;5035217;28;20296;-79
2023/01/28 05:53:20;;;;;;;6.05;5.50;;;17.80;65.40;;;;;;5037100;28;20220;-78
2023/01/28 05:55:49;;;;;;;6.15;5.55;;;17.80;65.30;;;;;;5036143;28;20202;-78
2023/01/28 05:58:16;;;;;;;7.63;5.85;;;17.80;65.30;;;;;;5035461;28;21029;-78
2023/01/28 06:00:42;;;;;;;6.22;5.63;;;17.80;65.40;;;;;;5034135;28;20479;-78
2023/01/28 06:03:11;;;;;;;6.90;6.20;;;17.80;65.30;;;;;;5033214;28;20198;-78
2023/01/28 06:05:38;;;;;;;6.93;6.25;;;17.80;65.30;;;;;;5039495;28;20293;-78
2023/01/28 06:08:05;;;;;;;6.03;5.47;;;17.80;65.40;;;;;;5040619;28;20570;-77
2023/01/28 06:10:32;;;;;;;6.05;5.45;;;17.80;65.30;;;;;;5038059;28;20214;-78
2023/01/28 06:12:59;;;;;;;7.20;6.50;;;17.80;65.40;;;;;;5040761;28;20240;-77
2023/01/28 06:15:25;;;;;;;5.55;5.05;;;17.80;65.30;;;;;;5039032;28;20607;-78
2023/01/28 06:17:52;;;;;;;5.53;4.80;;;17.70;65.30;;;;;;5038557;28;20193;-77
2023/01/28 06:20:20;;;;;;;5.78;5.28;;;17.70;65.20;;;;;;5040086;28;20211;-79
2023/01/28 06:22:49;;;;;;;6.22;5.60;;;17.70;65.30;;;;;;5040737;28;20209;-78
2023/01/28 06:25:16;;;;;;;5.85;5.35;;;17.70;65.30;;;;;;5038285;28;20216;-78
2023/01/28 06:27:43;;;;;;;6.38;5.78;;;17.70;65.30;;;;;;5040410;28;20198;-78
2023/01/28 06:30:11;;;;;;;8.52;5.72;;;17.70;65.30;;;;;;5040529;28;20221;-79
2023/01/28 06:32:38;;;;;;;6.35;5.65;;;17.70;65.20;;;;;;5037249;28;20207;-78
2023/01/28 06:35:05;;;;;;;7.53;5.25;;;17.70;65.30;;;;;;5039434;28;20254;-77
2023/01/28 06:37:33;;;;;;;7.30;5.90;;;17.70;65.30;;;;;;5039101;28;20202;-78
2023/01/28 06:40:00;;;;;;;7.28;5.90;;;17.70;65.20;;;;;;5039114;28;20660;-78
2023/01/28 06:42:26;;;;;;;6.30;5.70;;;17.70;65.00;;;;;;5040122;28;20229;-78
2023/01/28 06:44:53;;;;;;;5.97;5.47;;;17.80;65.10;;;;;;5038591;28;20669;-78
2023/01/28 06:47:20;;;;;;;5.80;5.30;;;17.80;65.00;;;;;;5039296;28;20220;-78
2023/01/28 06:49:47;;;;;;;6.43;5.38;;;17.80;65.00;;;;;;5042023;28;20199;-78
2023/01/28 06:52:13;;;;;;;5.78;5.05;;;17.80;64.80;;;;;;5039045;28;20225;-79
2023/01/28 06:54:41;;;;;;;5.40;4.85;;;17.90;64.80;;;;;;5038406;28;20223;-79
2023/01/28 06:57:08;;;;;;;5.05;4.65;;;17.90;64.60;;;;;;5039191;28;20196;-78
2023/01/28 06:59:35;;;;;;;5.50;5.00;;;18.00;64.60;;;;;;5039656;28;20203;-77
2023/01/28 07:02:02;;;;;;;5.85;5.32;;;18.00;64.60;;;;;;5038189;28;20207;-79
2023/01/28 07:04:29;;;;;;;6.07;5.47;;;18.00;64.60;;;;;;5037535;28;20210;-77
2023/01/28 07:06:58;;;;;;;5.55;5.05;;;18.10;64.70;;;;;;5038880;28;20277;-77
2023/01/28 07:09:24;;;;;;;5.78;5.22;;;18.10;64.70;;;;;;5038798;28;20227;-79
2023/01/28 07:11:52;;;;;;;6.43;5.30;;;18.10;64.80;;;;;;5037924;28;20200;-79
2023/01/28 07:14:19;;;;;;;5.00;4.50;;;18.20;64.90;;;;;;5041195;28;20212;-78
2023/01/28 07:16:46;;;;;;;6.45;5.40;;;18.20;65.00;;;;;;5036571;28;20677;-78
2023/01/28 07:19:13;;;;;;;6.35;4.82;;;18.20;65.00;;;;;;5040360;28;20205;-78
2023/01/28 07:21:39;;;;;;;5.60;5.10;;;18.20;65.00;;;;;;5038746;28;20203;-77
2023/01/28 07:24:07;;;;;;;5.63;4.50;;;18.30;65.90;;;;;;5036950;28;20211;-77
2023/01/28 07:26:33;;;;;;;5.25;4.68;;;18.30;65.10;;;;;;5038831;28;20205;-78
2023/01/28 07:29:02;;;;;;;4.68;4.28;;;18.30;65.10;;;;;;5039269;28;20233;-78
2023/01/28 07:31:28;;;;;;;4.80;4.20;;;18.30;65.10;;;;;;5036724;28;20210;-77
2023/01/28 07:33:55;;;;;;;5.05;4.57;;;18.30;65.10;;;;;;5038285;28;20693;-78
2023/01/28 07:36:22;;;;;;;5.38;4.30;;;18.30;65.10;;;;;;5039343;28;20563;-78
2023/01/28 07:38:49;;;;;;;5.10;4.60;;;18.40;65.20;;;;;;5037607;28;20196;-78
2023/01/28 07:41:15;;;;;;;5.25;4.60;;;18.40;65.10;;;;;;5038315;28;20203;-77
2023/01/28 07:43:42;;;;;;;5.00;4.53;;;18.40;65.10;;;;;;5039976;28;20570;-78
2023/01/28 07:46:14;;;;;;;4.72;4.32;;;18.40;65.10;;;;;;5039133;28;20199;-78
2023/01/28 07:48:41;;;;;;;5.38;4.68;;;18.40;65.10;;;;;;5035200;28;20211;-78
2023/01/28 07:51:07;;;;;;;4.20;3.80;;;18.40;65.10;;;;;;5036060;28;20207;-75
2023/01/28 07:53:34;;;;;;;5.40;4.90;;;18.40;65.10;;;;;;5037657;28;20738;-77
2023/01/28 07:56:01;;;;;;;4.05;3.75;;;18.50;65.20;;;;;;5039639;28;20204;-78
2023/01/28 07:58:28;;;;;;;4.60;4.18;;;18.50;65.20;;;;;;5038863;28;20200;-76
2023/01/28 08:00:58;;;;;;;5.10;4.63;;;18.50;65.20;;;;;;5036672;28;20256;-78
2023/01/28 08:03:26;;;;;;;4.18;3.78;;;18.50;65.20;;;;;;5038749;28;20200;-76
2023/01/28 08:05:55;;;;;;;5.10;3.95;;;18.50;65.20;;;;;;5038613;28;20203;-76
2023/01/28 08:08:22;;;;;;;5.75;4.60;;;18.50;65.10;;;;;;5035747;28;20226;-76
2023/01/28 08:10:49;;;;;;;4.47;4.07;;;18.50;65.10;;;;;;5036208;28;20210;-77
2023/01/28 08:13:18;;;;;;;4.38;3.92;;;18.50;65.20;;;;;;5037182;28;20200;-76
2023/01/28 08:15:45;;;;;;;5.25;4.65;;;18.60;65.20;;;;;;5035627;28;20211;-79
2023/01/28 08:18:14;;;;;;;5.15;4.65;;;18.50;65.10;;;;;;5037241;28;20202;-78
2023/01/28 08:20:44;;;;;;;4.38;3.97;;;18.60;65.20;;;;;;5038027;28;20213;-77
2023/01/28 08:23:13;;;;;;;4.30;3.90;;;18.50;65.10;;;;;;5037295;28;20511;-78
2023/01/28 08:25:40;;;;;;;4.10;3.70;;;18.60;65.20;;;;;;5035030;28;20677;-78
2023/01/28 08:28:08;;;;;;;4.20;3.80;;;18.60;65.20;;;;;;5034865;28;20195;-78
2023/01/28 08:30:36;;;;;;;4.97;4.47;;;18.50;65.00;;;;;;5036382;28;20200;-77
2023/01/28 08:33:04;;;;;;;4.10;3.55;;;18.60;65.20;;;;;;5035229;28;20195;-78
2023/01/28 08:35:32;;;;;;;4.53;4.13;;;18.60;65.20;;;;;;5035558;28;20698;-78
2023/01/28 08:38:01;;;;;;;4.70;4.20;;;18.60;65.10;;;;;;5037020;28;20202;-78
2023/01/28 08:40:28;;;;;;;4.15;3.75;;;18.60;65.10;;;;;;5035940;28;20195;-77
2023/01/28 08:42:55;;;;;;;4.35;3.95;;;18.60;65.10;;;;;;5036639;28;20671;-76
2023/01/28 08:45:24;;;;;;;10.18;4.20;;;18.60;65.30;;;;;;5036201;28;20194;-77
2023/01/28 08:47:52;;;;;;;7.68;3.65;;;18.60;65.20;;;;;;5036074;28;20206;-80
2023/01/28 08:50:22;;;;;;;3.75;3.30;;;18.50;64.30;;;;;;5036807;28;20203;-81
2023/01/28 08:52:55;;;;;;;3.40;3.10;;;18.40;63.40;;;;;;5035701;28;20243;-81
2023/01/28 08:55:23;;;;;;;5.95;3.55;;;18.20;59.80;;;;;;5035211;28;20674;-79
2023/01/28 08:57:50;;;;;;;6.22;2.95;;;18.20;60.40;;;;;;5035629;28;20200;-77
2023/01/28 09:00:18;;;;;;;4.45;2.88;;;18.30;61.00;;;;;;5036278;28;20196;-77
2023/01/28 09:02:50;;;;;;;9.27;3.22;;;18.40;60.90;;;;;;5034755;28;20222;-82
2023/01/28 09:05:17;;;;;;;5.72;3.35;;;18.40;60.60;;;;;;5037568;28;20199;-79
2023/01/28 09:07:44;;;;;;;3.55;3.10;;;18.40;60.50;;;;;;5038623;28;20203;-79
2023/01/28 09:10:11;;;;;;;3.60;2.97;;;18.50;60.80;;;;;;5037947;28;20208;-77
2023/01/28 09:12:39;;;;;;;9.00;2.65;;;18.50;60.70;;;;;;5035533;28;20574;-79
2023/01/28 09:15:07;;;;;;;2.92;2.33;;;18.50;60.20;;;;;;5033999;28;20224;-79
2023/01/28 09:17:34;;;;;;;8.35;3.20;;;18.50;59.80;;;;;;5035136;28;20209;-76
2023/01/28 09:20:01;;;;;;;8.73;3.95;;;18.50;59.80;;;;;;5033099;28;20644;-76
2023/01/28 09:22:27;;;;;;;5.97;2.13;;;18.60;60.10;;;;;;5033867;28;20199;-77
2023/01/28 09:24:54;;;;;;;2.83;2.50;;;18.50;60.00;;;;;;5035331;28;20614;-76
2023/01/28 09:27:21;;;;;;;4.75;2.80;;;18.60;60.10;;;;;;5032871;28;21805;-78
2023/01/28 09:29:49;;;;;;;6.50;2.40;;;18.60;60.10;;;;;;5040415;28;20677;-78
2023/01/28 09:32:16;;;;;;;3.33;2.10;;;18.60;60.30;;;;;;5039539;28;20210;-78
2023/01/28 09:34:43;;;;;;;2.90;2.65;;;18.60;61.10;;;;;;5040529;28;20226;-77
2023/01/28 09:37:11;;;;;;;2.05;1.85;;;18.60;60.30;;;;;;5042324;28;20195;-77
2023/01/28 09:39:38;;;;;;;3.92;2.65;;;18.60;60.40;;;;;;5040417;28;20192;-79
2023/01/28 09:42:19;;;;;;;5.07;2.50;;;18.70;60.60;;;;;;5042384;28;20596;-79
2023/01/28 09:44:59;;;;;;;2.83;2.47;;;18.70;60.10;;;;;;5043822;28;20222;-78
2023/01/28 09:47:29;;;;;;;2.97;2.05;;;18.70;60.80;;;;;;5041440;28;20215;-79
2023/01/28 09:50:04;;;;;;;4.18;2.10;;;18.70;60.90;;;;;;5040942;28;20206;-80
2023/01/28 09:52:35;;;;;;;2.15;1.95;;;18.70;61.00;;;;;;5040630;28;20228;-80
2023/01/28 09:55:07;;;;;;;3.00;2.17;;;18.70;61.00;;;;;;5040343;28;20220;-77
2023/01/28 09:57:39;;;;;;;5.90;2.85;;;18.60;61.00;;;;;;5040932;28;20245;-80
2023/01/28 10:00:14;;;;;;;2.63;1.92;;;18.70;61.20;;;;;;5044671;28;20209;-80
2023/01/28 10:02:55;;;;;;;3.15;2.28;;;18.70;61.20;;;;;;5040679;28;20203;-78
2023/01/28 10:05:29;;;;;;;2.38;2.17;;;18.70;61.20;;;;;;5041785;28;20198;-80
2023/01/28 10:08:07;;;;;;;2.88;1.83;;;18.70;61.20;;;;;;5041793;28;20218;-78
2023/01/28 10:10:42;;;;;;;2.80;1.85;;;18.70;61.30;;;;;;5039826;28;20191;-78
2023/01/28 10:13:20;;;;;;;3.42;3.05;;;18.70;61.20;;;;;;5040298;28;20199;-79
2023/01/28 10:16:09;;;;;;;3.65;2.53;;;18.80;61.40;;;;;;5040631;28;20218;-79
2023/01/28 10:18:43;;;;;;;2.78;2.38;;;18.80;61.40;;;;;;5039208;28;20205;-78
2023/01/28 10:21:15;;;;;;;2.20;1.75;;;18.80;61.40;;;;;;5039451;28;20196;-79
2023/01/28 10:23:49;;;;;;;1.70;1.60;;;18.80;61.50;;;;;;5041999;28;20196;-78
2023/01/28 10:26:23;;;;;;;2.35;2.05;;;18.80;61.50;;;;;;5040812;28;20204;-79
2023/01/28 10:28:56;;;;;;;1.95;1.73;;;18.80;61.50;;;;;;5043454;28;20210;-78
2023/01/28 10:31:35;;;;;;;2.78;2.50;;;18.80;61.50;;;;;;5041125;28;20214;-78
2023/01/28 10:34:03;;;;;;;1.92;1.60;;;18.80;61.50;;;;;;5041953;28;20196;-78
2023/01/28 10:36:30;;;;;;;3.25;2.10;;;18.90;61.70;;;;;;5039890;28;20644;-80
2023/01/28 10:38:57;;;;;;;2.55;1.95;;;18.80;61.60;;;;;;5042193;28;20214;-76
2023/01/28 10:41:25;;;;;;;2.20;2.00;;;18.90;61.80;;;;;;5042501;28;20658;-78
2023/01/28 10:43:52;;;;;;;1.70;1.50;;;18.90;61.80;;;;;;5039149;28;20203;-81
2023/01/28 10:46:23;;;;;;;3.03;2.63;;;18.90;61.80;;;;;;5033885;28;20566;-80
2023/01/28 10:48:58;;;;;;;3.78;3.20;;;18.70;58.20;;;;;;5034832;28;20213;-81
2023/01/28 10:51:36;;;;;;;2.78;2.20;;;17.70;53.10;;;;;;5035505;28;20230;-81
2023/01/28 10:54:16;;;;;;;2.35;2.10;;;18.00;56.30;;;;;;5037366;28;20196;-81
2023/01/28 10:56:48;;;;;;;2.45;2.22;;;18.20;57.30;;;;;;5040776;28;20207;-86
2023/01/28 10:59:28;;;;;;;2.30;2.10;;;18.40;57.70;;;;;;5042764;28;20202;-83
2023/01/28 11:01:58;;;;;;;2.63;2.05;;;18.60;58.10;;;;;;5038597;28;20204;-83
2023/01/28 11:04:29;;;;;;;3.25;2.25;;;18.80;58.40;;;;;;5041853;28;20566;-84
2023/01/28 11:06:58;;;;;;;4.25;1.98;;;18.80;58.60;;;;;;5043534;28;20211;-82
2023/01/28 11:09:28;;;;;;;2.92;2.65;;;18.90;58.80;;;;;;5040648;28;20210;-81
2023/01/28 11:11:54;;;;;;;2.20;1.80;;;19.00;59.10;;;;;;5043494;28;20210;-81
2023/01/28 11:14:23;;;;;;;2.10;1.90;;;19.00;59.20;;;;;;5044705;28;20551;-81
2023/01/28 11:16:52;;;;;;;1.48;1.38;;;19.10;59.50;;;;;;5040041;28;20200;-81
2023/01/28 11:19:20;;;;;;;2.97;1.58;;;19.10;59.60;;;;;;5044172;28;20200;-81
2023/01/28 11:21:55;;;;;;;1.88;1.67;;;19.10;59.80;;;;;;5043987;28;20584;-80
2023/01/28 11:24:25;;;;;;;3.13;1.70;;;19.20;60.00;;;;;;5046505;28;20282;-80
2023/01/28 11:26:55;;;;;;;2.70;2.05;;;19.20;61.00;;;;;;5048375;28;20647;-81
2023/01/28 11:29:26;;;;;;;2.42;1.50;;;19.30;60.40;;;;;;5048273;28;20202;-81
2023/01/28 11:31:52;;;;;;;2.17;1.85;;;19.30;60.60;;;;;;5045389;28;20862;-80
2023/01/28 11:34:24;;;;;;;4.90;1.60;;;19.30;60.70;;;;;;5043336;28;20205;-82
2023/01/28 11:36:54;;;;;;;3.28;1.63;;;19.30;60.80;;;;;;5040350;28;20220;-82
2023/01/28 11:39:24;;;;;;;2.13;1.63;;;19.40;61.00;;;;;;5038872;28;20670;-80
2023/01/28 11:41:52;;;;;;;2.58;1.65;;;19.40;61.20;;;;;;5039821;28;20235;-79
2023/01/28 11:44:21;;;;;;;2.00;1.77;;;19.40;61.30;;;;;;5039775;28;20572;-80
2023/01/28 11:47:02;;;;;;;1.60;1.50;;;19.40;61.40;;;;;;5040201;28;20201;-81
2023/01/28 11:49:41;;;;;;;1.90;1.30;;;19.40;61.50;;;;;;5042120;28;20215;-80
2023/01/28 11:52:17;;;;;;;1.60;1.50;;;19.50;61.70;;;;;;5040862;28;20224;-82
2023/01/28 11:54:53;;;;;;;1.85;1.65;;;19.50;61.70;;;;;;5042768;28;20585;-79
2023/01/28 11:57:24;;;;;;;1.70;1.48;;;19.50;61.80;;;;;;5039758;28;20396;-79
2023/01/28 12:00:28;;;;;;;1.85;1.45;;;19.50;61.90;;;;;;5036683;28;20202;-79
2023/01/28 12:03:05;;;;;;;1.92;1.55;;;19.50;61.90;;;;;;5018283;28;20253;-82
2023/01/28 12:05:49;;;;;;;1.48;1.38;;;19.50;62.00;;;;;;5044742;28;20203;-81
2023/01/28 12:08:23;;;;;;;1.52;1.20;;;19.60;62.10;;;;;;5041425;28;20674;-81
2023/01/28 12:11:08;;;;;;;3.95;1.58;;;19.60;62.20;;;;;;5042813;28;20300;-80
2023/01/28 12:13:48;;;;;;;1.80;1.58;;;19.60;62.30;;;;;;5042593;28;20343;-79
2023/01/28 12:16:42;;;;;;;2.13;1.92;;;19.60;62.30;;;;;;5039529;28;20864;-82
2023/01/28 12:19:37;;;;;;;1.80;1.52;;;19.60;62.40;;;;;;5037546;28;20223;-81
2023/01/28 12:22:24;;;;;;;1.35;1.25;;;19.70;62.60;;;;;;5041633;28;20203;-80
2023/01/28 12:25:07;;;;;;;3.13;1.70;;;19.70;62.60;;;;;;5039666;28;20355;-80
2023/01/28 12:27:44;;;;;;;1.48;1.38;;;19.70;62.60;;;;;;5040759;28;20294;-79
2023/01/28 12:30:22;;;;;;;2.10;1.25;;;19.70;62.70;;;;;;5038024;28;20205;-80
2023/01/28 12:33:01;;;;;;;1.60;1.10;;;19.70;62.80;;;;;;5039876;28;20204;-79
2023/01/28 12:35:44;;;;;;;1.98;1.75;;;19.70;62.80;;;;;;5039930;28;20244;-82
2023/01/28 12:38:15;;;;;;;2.03;1.50;;;19.70;62.80;;;;;;5037232;28;20206;-79
2023/01/28 12:40:54;;;;;;;1.70;1.50;;;19.80;63.00;;;;;;5041537;28;20201;-81
2023/01/28 12:43:27;;;;;;;1.67;1.42;;;19.80;63.10;;;;;;5038350;28;21852;-78
2023/01/28 12:45:57;;;;;;;2.08;1.75;;;19.80;63.00;;;;;;5036488;28;20562;-79
2023/01/28 12:48:29;;;;;;;2.78;1.52;;;19.80;63.10;;;;;;5039514;28;20208;-82
2023/01/28 12:51:03;;;;;;;1.45;1.35;;;19.80;63.10;;;;;;5042974;28;20211;-81
2023/01/28 12:53:36;;;;;;;1.50;1.40;;;19.90;63.20;;;;;;5040217;28;20208;-80
2023/01/28 12:56:14;;;;;;;1.65;1.55;;;19.90;63.20;;;;;;5039390;28;20828;-82
2023/01/28 12:58:47;;;;;;;2.60;1.23;;;19.90;63.20;;;;;;5037216;28;20202;-81
2023/01/28 13:01:17;;;;;;;1.65;1.55;;;19.90;63.30;;;;;;5038436;28;20201;-83
2023/01/28 13:03:51;;;;;;;3.28;1.20;;;19.90;63.30;;;;;;5038522;28;20214;-81
2023/01/28 13:06:24;;;;;;;1.67;1.35;;;19.90;63.30;;;;;;5038491;28;20204;-80
2023/01/28 13:08:58;;;;;;;1.70;1.52;;;20.00;63.50;;;;;;5040841;28;20198;-79
2023/01/28 13:11:34;;;;;;;1.95;1.50;;;19.90;63.40;;;;;;5037766;28;20205;-79
2023/01/28 13:14:02;;;;;;;1.67;1.48;;;19.90;63.40;;;;;;5038595;28;20694;-79
2023/01/28 13:16:29;;;;;;;1.65;1.45;;;19.90;63.40;;;;;;5037943;28;20218;-81
2023/01/28 13:19:06;;;;;;;3.17;1.40;;;19.90;63.40;;;;;;5040144;28;20204;-81
2023/01/28 13:21:35;;;;;;;2.28;1.60;;;20.00;63.60;;;;;;5038221;28;20245;-80
2023/01/28 13:24:19;;;;;;;1.40;1.30;;;20.00;63.70;;;;;;5039651;28;20198;-80
2023/01/28 13:26:49;;;;;;;1.70;1.60;;;20.00;63.70;;;;;;5039705;28;20201;-79
2023/01/28 13:29:27;;;;;;;1.80;1.70;;;20.00;63.70;;;;;;5039967;28;20588;-81